createdAt,value
2022-09-15T00:02:07.709Z,18.41
2022-09-15T00:07:09.598Z,18.45
2022-09-15T00:12:11.223Z,18.42
2022-09-15T00:17:12.896Z,18.36
2022-09-15T00:22:14.635Z,18.25
2022-09-15T00:27:17.146Z,18.13
2022-09-15T00:32:18.762Z,18.05
2022-09-15T00:37:20.746Z,17.84
2022-09-15T00:42:23.118Z,17.79
2022-09-15T00:47:29.639Z,17.69
2022-09-15T00:52:52.002Z,17.44
2022-09-15T00:58:01.649Z,17.52
2022-09-15T01:03:04.061Z,17.51
2022-09-15T01:08:16.418Z,17.37
2022-09-15T01:13:18.397Z,17.23
2022-09-15T01:18:41.689Z,17.14
2022-09-15T01:24:02.193Z,17.06
2022-09-15T01:29:22.409Z,16.81
2022-09-15T01:34:28.574Z,16.85
2022-09-15T01:39:37.519Z,16.89
2022-09-15T01:44:55.114Z,16.93
2022-09-15T01:50:09.420Z,17.03
2022-09-15T01:55:25.359Z,16.91
2022-09-15T02:00:27.090Z,16.96
2022-09-15T02:05:41.598Z,16.59
2022-09-15T02:10:51.402Z,16.64
2022-09-15T02:15:58.371Z,16.62
2022-09-15T02:21:10.434Z,16.62
2022-09-15T02:26:19.664Z,16.50
2022-09-15T02:31:25.134Z,16.50
2022-09-15T02:36:29.337Z,16.52
2022-09-15T02:41:31.228Z,16.34
2022-09-15T02:46:34.147Z,16.37
2022-09-15T02:51:36.087Z,16.39
2022-09-15T02:56:38.004Z,16.46
2022-09-15T03:01:40.945Z,16.46
2022-09-15T03:06:43.653Z,16.41
2022-09-15T03:11:45.355Z,16.43
2022-09-15T03:16:47.592Z,16.30
2022-09-15T03:21:49.239Z,16.26
2022-09-15T03:26:50.883Z,16.21
2022-09-15T03:31:52.641Z,16.19
2022-09-15T03:36:54.271Z,16.24
2022-09-15T03:41:56.181Z,16.24
2022-09-15T03:46:58.335Z,16.24
2022-09-15T03:51:59.977Z,16.26
2022-09-15T03:57:01.727Z,16.16
2022-09-15T04:02:03.518Z,16.12
2022-09-15T04:07:05.365Z,16.16
2022-09-15T04:12:07.188Z,16.20
2022-09-15T04:17:10.741Z,16.16
2022-09-15T04:22:17.553Z,16.11
2022-09-15T04:27:19.785Z,16.07
2022-09-15T04:32:22.130Z,15.97
2022-09-15T04:37:23.964Z,15.96
2022-09-15T04:42:25.907Z,15.92
2022-09-15T04:47:27.531Z,15.88
2022-09-15T04:52:29.237Z,15.79
2022-09-15T04:57:30.855Z,15.71
2022-09-15T05:02:33.501Z,15.63
2022-09-15T05:07:35.175Z,15.54
2022-09-15T05:12:36.826Z,15.50
2022-09-15T05:17:38.517Z,15.46
2022-09-15T05:22:42.002Z,15.34
2022-09-15T05:27:43.816Z,15.32
2022-09-15T05:32:45.446Z,15.24
2022-09-15T05:37:47.088Z,15.17
2022-09-15T05:42:48.708Z,15.16
2022-09-15T05:47:50.655Z,15.12
2022-09-15T05:52:52.818Z,15.25
2022-09-15T05:57:54.450Z,15.42
2022-09-15T06:02:56.137Z,15.37
2022-09-15T06:07:57.815Z,15.49
2022-09-15T06:12:59.415Z,15.53
2022-09-15T06:18:01.040Z,15.65
2022-09-15T06:23:02.735Z,15.85
2022-09-15T06:28:04.386Z,16.06
2022-09-15T06:33:06.140Z,16.13
2022-09-15T06:38:08.563Z,16.26
2022-09-15T06:43:10.369Z,16.46
2022-09-15T06:48:23.815Z,16.58
2022-09-15T06:53:30.200Z,16.55
2022-09-15T06:58:33.936Z,16.52
2022-09-15T07:03:36.624Z,16.65
2022-09-15T07:08:39.619Z,16.87
2022-09-15T07:13:41.692Z,16.86
2022-09-15T07:18:43.865Z,16.88
2022-09-15T07:23:46.203Z,17.33
2022-09-15T07:28:50.896Z,17.47
2022-09-15T07:33:53.433Z,17.25
2022-09-15T07:38:55.358Z,17.29
2022-09-15T07:43:59.147Z,17.30
2022-09-15T07:49:03.081Z,17.65
2022-09-15T07:54:04.990Z,17.85
2022-09-15T07:59:07.851Z,17.92
2022-09-15T08:04:09.520Z,18.11
2022-09-15T08:09:14.897Z,18.42
2022-09-15T08:14:16.514Z,18.70
2022-09-15T08:19:18.401Z,18.71
2022-09-15T08:24:20.158Z,18.38
2022-09-15T08:29:21.905Z,18.63
2022-09-15T08:34:23.804Z,18.92
2022-09-15T08:39:25.494Z,19.46
2022-09-15T08:44:56.646Z,19.79
2022-09-15T08:50:39.059Z,19.57
2022-09-15T08:55:54.134Z,19.51
2022-09-15T09:01:11.130Z,19.17
2022-09-15T09:06:43.425Z,19.55
2022-09-15T09:12:17.421Z,19.52
2022-09-15T09:17:39.378Z,19.48
2022-09-15T09:22:44.639Z,19.40
2022-09-15T09:27:47.712Z,19.23
2022-09-15T09:33:20.662Z,19.54
2022-09-15T09:38:35.367Z,19.84
2022-09-15T09:43:37.072Z,19.70
2022-09-15T09:48:39.959Z,19.76
2022-09-15T09:53:42.576Z,19.95
2022-09-15T09:58:45.029Z,20.04
2022-09-15T10:03:47.381Z,19.93
2022-09-15T10:09:03.638Z,19.84
2022-09-15T10:14:06.239Z,19.87
2022-09-15T10:19:14.302Z,20.41
2022-09-15T10:24:34.678Z,20.77
2022-09-15T10:29:39.887Z,21.00
2022-09-15T10:34:41.606Z,21.09
2022-09-15T10:39:56.185Z,20.84
2022-09-15T10:45:14.398Z,20.55
2022-09-15T10:50:45.119Z,20.52
2022-09-15T10:55:56.192Z,20.92
2022-09-15T11:01:32.447Z,20.59
2022-09-15T11:06:52.664Z,20.42
2022-09-15T11:12:06.624Z,20.32
2022-09-15T11:17:11.361Z,20.16
2022-09-15T11:22:22.556Z,20.10
2022-09-15T11:27:28.163Z,20.02
2022-09-15T11:33:18.199Z,20.20
2022-09-15T11:38:43.080Z,20.11
2022-09-15T11:44:26.775Z,20.16
2022-09-15T11:49:53.849Z,20.46
2022-09-15T11:55:20.355Z,20.62
2022-09-15T12:00:25.987Z,20.80
2022-09-15T12:05:39.891Z,20.96
2022-09-15T12:10:48.992Z,21.02
2022-09-15T12:15:52.484Z,20.98
2022-09-15T12:21:07.260Z,21.10
2022-09-15T12:26:23.121Z,21.19
2022-09-15T12:31:47.456Z,21.36
2022-09-15T12:36:53.513Z,21.35
2022-09-15T12:42:04.154Z,21.39
2022-09-15T12:47:19.396Z,21.40
2022-09-15T12:52:23.994Z,21.39
2022-09-15T12:57:37.091Z,21.51
2022-09-15T13:08:30.177Z,21.63
2022-09-15T13:14:04.136Z,21.41
2022-09-15T13:19:27.232Z,21.27
2022-09-15T13:24:50.460Z,20.99
2022-09-15T13:30:09.328Z,20.84
2022-09-15T13:35:43.854Z,21.01
2022-09-15T13:40:54.650Z,21.15
2022-09-15T13:46:28.587Z,21.20
2022-09-15T13:51:32.862Z,21.46
2022-09-15T13:56:41.557Z,21.67
2022-09-15T14:01:44.966Z,21.73
2022-09-15T14:06:50.649Z,21.66
2022-09-15T14:11:56.524Z,21.50
2022-09-15T14:16:58.294Z,21.27
2022-09-15T14:22:02.625Z,21.32
2022-09-15T14:27:09.590Z,21.06
2022-09-15T14:32:17.595Z,20.83
2022-09-15T14:37:29.746Z,20.86
2022-09-15T14:42:37.371Z,21.21
2022-09-15T14:47:43.393Z,21.20
2022-09-15T14:52:53.254Z,21.12
2022-09-15T14:57:58.296Z,20.66
2022-09-15T15:03:32.526Z,21.14
2022-09-15T15:08:38.785Z,21.25
2022-09-15T15:13:44.376Z,21.15
2022-09-15T15:18:47.272Z,21.28
2022-09-15T15:23:51.380Z,21.07
2022-09-15T15:28:55.921Z,20.55
2022-09-15T15:34:08.553Z,20.14
2022-09-15T15:39:24.822Z,19.99
2022-09-15T15:44:29.991Z,19.85
2022-09-15T15:49:33.725Z,19.80
2022-09-15T15:54:35.508Z,19.70
2022-09-15T15:59:42.505Z,19.43
2022-09-15T16:04:46.430Z,19.30
2022-09-15T16:10:02.229Z,19.15
2022-09-15T16:15:16.948Z,19.11
2022-09-15T16:20:34.132Z,18.99
2022-09-15T16:25:45.903Z,18.99
2022-09-15T16:30:59.219Z,18.94
2022-09-15T16:36:07.083Z,18.83
2022-09-15T16:41:15.831Z,18.82
2022-09-15T16:46:20.603Z,18.77
2022-09-15T16:51:29.755Z,18.70
2022-09-15T16:56:33.244Z,18.57
2022-09-15T17:01:35.068Z,18.40
2022-09-15T17:06:36.901Z,18.26
2022-09-15T17:11:38.652Z,18.09
2022-09-15T17:16:40.356Z,17.98
2022-09-15T17:21:42.061Z,17.57
2022-09-15T17:26:43.723Z,17.32
2022-09-15T17:31:45.426Z,17.14
2022-09-15T17:36:47.088Z,17.20
2022-09-15T17:41:49.192Z,17.19
2022-09-15T17:46:50.926Z,17.24
2022-09-15T17:51:52.795Z,17.14
2022-09-15T17:56:54.710Z,17.12
2022-09-15T18:01:57.108Z,17.00
2022-09-15T18:06:59.292Z,16.91
2022-09-15T18:12:01.565Z,16.80
2022-09-15T18:17:03.370Z,16.83
2022-09-15T18:22:05.167Z,16.76
2022-09-15T18:27:07.785Z,16.70
2022-09-15T18:32:09.593Z,16.75
2022-09-15T18:37:12.315Z,16.70
2022-09-15T18:42:14.050Z,16.68
2022-09-15T18:47:15.785Z,16.40
2022-09-15T18:52:17.629Z,16.29
2022-09-15T18:57:20.129Z,16.16
2022-09-15T19:02:37.455Z,16.05
2022-09-15T19:07:39.376Z,16.09
2022-09-15T19:12:41.106Z,16.10
2022-09-15T19:17:43.766Z,16.08
2022-09-15T19:22:46.144Z,16.01
2022-09-15T19:27:49.067Z,15.99
2022-09-15T19:32:51.828Z,15.90
2022-09-15T19:37:53.741Z,15.77
2022-09-15T19:42:55.432Z,15.92
2022-09-15T19:47:57.174Z,15.90
2022-09-15T19:52:59.735Z,15.87
2022-09-15T19:58:01.544Z,15.91
2022-09-15T20:03:03.627Z,15.94
2022-09-15T20:08:05.341Z,15.87
2022-09-15T20:13:07.033Z,15.86
2022-09-15T20:18:09.165Z,15.87
2022-09-15T20:23:11.077Z,15.87
2022-09-15T20:28:12.731Z,15.83
2022-09-15T20:33:14.724Z,15.91
2022-09-15T20:38:16.364Z,15.93
2022-09-15T20:43:18.045Z,15.87
2022-09-15T20:48:19.704Z,15.89
2022-09-15T20:53:21.402Z,15.82
2022-09-15T20:58:23.136Z,15.82
2022-09-15T21:03:24.797Z,15.79
2022-09-15T21:08:27.278Z,15.84
2022-09-15T21:13:30.945Z,15.78
2022-09-15T21:18:34.553Z,15.82
2022-09-15T21:23:42.773Z,15.77
2022-09-15T21:28:45.119Z,15.71
2022-09-15T21:33:47.910Z,15.64
2022-09-15T21:38:51.623Z,15.64
2022-09-15T21:43:55.165Z,15.61
2022-09-15T21:48:59.069Z,15.62
2022-09-15T21:54:00.877Z,15.61
2022-09-15T21:59:03.286Z,15.61
2022-09-15T22:04:07.165Z,15.60
2022-09-15T22:09:13.143Z,15.55
2022-09-15T22:14:14.950Z,15.49
2022-09-15T22:19:16.609Z,15.35
2022-09-15T22:24:18.850Z,15.17
2022-09-15T22:29:48.509Z,15.11
2022-09-15T22:34:50.175Z,15.16
2022-09-15T22:39:59.615Z,15.15
2022-09-15T22:45:01.353Z,15.00
2022-09-15T22:50:03.036Z,14.97
2022-09-15T22:55:05.077Z,14.89
2022-09-15T23:00:07.716Z,14.90
2022-09-15T23:05:10.701Z,14.94
2022-09-15T23:10:12.332Z,14.87
2022-09-15T23:15:14.173Z,14.77
2022-09-15T23:20:15.894Z,14.71
2022-09-15T23:25:17.591Z,14.64
2022-09-15T23:30:19.269Z,14.54
2022-09-15T23:35:20.867Z,14.50
2022-09-15T23:40:22.720Z,14.41
2022-09-15T23:45:24.414Z,14.40
2022-09-15T23:50:26.615Z,14.32
2022-09-15T23:55:29.073Z,14.34
